createdAt,value
2022-08-07T00:00:31.171Z,56.20
2022-08-07T00:02:57.745Z,56.25
2022-08-07T00:05:25.085Z,56.68
2022-08-07T00:07:59.797Z,57.21
2022-08-07T00:10:29.842Z,57.45
2022-08-07T00:13:02.285Z,57.26
2022-08-07T00:15:46.457Z,57.41
2022-08-07T00:18:21.003Z,57.43
2022-08-07T00:20:51.265Z,57.48
2022-08-07T00:23:18.643Z,57.73
2022-08-07T00:25:52.090Z,58.22
2022-08-07T00:28:33.187Z,57.99
2022-08-07T00:31:12.813Z,57.91
2022-08-07T00:33:43.408Z,57.78
2022-08-07T00:36:14.115Z,58.50
2022-08-07T00:38:40.835Z,58.49
2022-08-07T00:41:10.040Z,58.44
2022-08-07T00:44:01.535Z,58.80
2022-08-07T00:46:29.043Z,58.72
2022-08-07T00:48:55.791Z,59.48
2022-08-07T00:51:22.327Z,59.25
2022-08-07T00:53:55.892Z,59.59
2022-08-07T00:56:30.247Z,59.60
2022-08-07T00:59:01.315Z,59.97
2022-08-07T01:01:28.620Z,59.67
2022-08-07T01:04:09.074Z,59.72
2022-08-07T01:06:35.662Z,59.97
2022-08-07T01:09:03.532Z,60.31
2022-08-07T01:12:23.903Z,60.55
2022-08-07T01:14:21.134Z,60.45
2022-08-07T01:16:49.007Z,60.61
2022-08-07T01:19:19.644Z,61.31
2022-08-07T01:21:53.376Z,61.29
2022-08-07T01:24:24.839Z,61.20
2022-08-07T01:26:52.676Z,61.13
2022-08-07T01:29:24.165Z,61.05
2022-08-07T01:31:55.699Z,61.13
2022-08-07T01:34:30.809Z,61.24
2022-08-07T01:37:00.697Z,61.28
2022-08-07T01:39:41.350Z,61.44
2022-08-07T01:42:38.411Z,61.28
2022-08-07T01:45:18.312Z,61.35
2022-08-07T01:48:20.529Z,61.58
2022-08-07T01:50:43.075Z,62.05
2022-08-07T01:53:20.989Z,62.52
2022-08-07T01:55:58.613Z,62.68
2022-08-07T01:58:33.035Z,60.00
2022-08-07T02:01:59.236Z,62.02
2022-08-07T02:04:03.296Z,62.31
2022-08-07T02:06:35.510Z,62.94
2022-08-07T02:09:07.628Z,62.91
2022-08-07T02:12:03.747Z,63.59
2022-08-07T02:14:35.847Z,63.40
2022-08-07T02:17:13.027Z,63.02
2022-08-07T02:20:04.473Z,63.99
2022-08-07T02:22:33.110Z,64.05
2022-08-07T02:25:00.752Z,63.85
2022-08-07T02:27:34.116Z,64.32
2022-08-07T02:30:07.120Z,64.10
2022-08-07T02:32:39.400Z,64.54
2022-08-07T02:36:30.672Z,64.27
2022-08-07T02:38:13.859Z,65.07
2022-08-07T02:40:44.198Z,64.62
2022-08-07T02:43:15.363Z,64.86
2022-08-07T02:45:58.955Z,64.68
2022-08-07T02:48:30.898Z,64.62
2022-08-07T02:51:06.613Z,65.18
2022-08-07T02:53:38.853Z,65.24
2022-08-07T02:56:21.128Z,65.10
2022-08-07T02:58:51.548Z,65.33
2022-08-07T03:01:36.008Z,65.29
2022-08-07T03:04:12.600Z,65.41
2022-08-07T03:06:48.126Z,65.58
2022-08-07T03:09:42.273Z,65.81
2022-08-07T03:12:05.871Z,65.80
2022-08-07T03:14:36.331Z,65.93
2022-08-07T03:17:04.928Z,65.88
2022-08-07T03:19:37.137Z,66.25
2022-08-07T03:22:06.979Z,66.04
2022-08-07T03:24:34.862Z,65.98
2022-08-07T03:27:06.179Z,66.44
2022-08-07T03:29:53.271Z,66.20
2022-08-07T03:32:26.932Z,66.32
2022-08-07T03:35:16.617Z,64.07
2022-08-07T03:37:53.982Z,66.11
2022-08-07T03:40:24.189Z,66.60
2022-08-07T03:43:00.582Z,66.54
2022-08-07T03:45:31.387Z,66.90
2022-08-07T03:48:10.156Z,66.68
2022-08-07T03:50:38.884Z,66.99
2022-08-07T03:53:10.395Z,67.02
2022-08-07T03:55:57.378Z,67.15
2022-08-07T03:59:05.587Z,67.23
2022-08-07T04:01:14.485Z,68.01
2022-08-07T04:03:49.697Z,67.42
2022-08-07T04:06:36.358Z,67.57
2022-08-07T04:09:15.329Z,67.53
2022-08-07T04:12:25.701Z,67.80
2022-08-07T04:14:38.531Z,68.08
2022-08-07T04:18:11.241Z,68.30
2022-08-07T04:19:58.738Z,67.89
2022-08-07T04:22:29.091Z,68.09
2022-08-07T04:25:01.426Z,65.77
2022-08-07T04:27:35.519Z,67.80
2022-08-07T04:30:11.748Z,68.14
2022-08-07T04:32:58.235Z,67.97
2022-08-07T04:35:27.356Z,68.52
2022-08-07T04:38:06.808Z,68.94
2022-08-07T04:40:51.465Z,68.99
2022-08-07T04:44:11.331Z,69.10
2022-08-07T04:46:34.239Z,69.69
2022-08-07T04:49:38.792Z,69.11
2022-08-07T04:52:51.270Z,69.09
2022-08-07T04:58:24.118Z,69.75
2022-08-07T04:58:49.568Z,70.01
2022-08-07T05:01:30.784Z,69.71
2022-08-07T05:04:56.977Z,69.18
2022-08-07T05:07:55.548Z,70.58
2022-08-07T05:10:33.186Z,70.17
2022-08-07T05:14:55.126Z,70.60
2022-08-07T05:16:07.243Z,70.50
2022-08-07T05:18:39.997Z,70.68
2022-08-07T05:21:11.743Z,70.61
2022-08-07T05:23:48.179Z,71.01
2022-08-07T05:26:24.044Z,70.46
2022-08-07T05:28:59.084Z,71.16
2022-08-07T05:31:37.811Z,71.17
2022-08-07T05:34:12.469Z,70.84
2022-08-07T05:36:48.975Z,70.95
2022-08-07T05:40:14.346Z,70.84
2022-08-07T05:42:33.362Z,70.53
2022-08-07T05:45:14.092Z,71.03
2022-08-07T05:48:01.937Z,71.34
2022-08-07T05:50:34.237Z,70.78
2022-08-07T05:53:02.536Z,71.47
2022-08-07T05:56:03.004Z,71.20
2022-08-07T05:58:36.146Z,71.22
2022-08-07T06:01:05.966Z,70.95
2022-08-07T06:03:54.030Z,71.18
2022-08-07T06:06:29.854Z,71.23
2022-08-07T06:09:04.655Z,70.89
2022-08-07T06:11:33.268Z,70.66
2022-08-07T06:14:12.999Z,70.56
2022-08-07T06:16:56.341Z,70.51
2022-08-07T06:19:51.819Z,70.58
2022-08-07T06:22:23.333Z,70.23
2022-08-07T06:25:01.236Z,70.01
2022-08-07T06:27:59.798Z,70.65
2022-08-07T06:30:31.768Z,70.04
2022-08-07T06:33:03.729Z,70.03
2022-08-07T06:35:45.470Z,70.20
2022-08-07T06:38:20.123Z,69.81
2022-08-07T06:40:53.346Z,69.73
2022-08-07T06:43:24.831Z,70.24
2022-08-07T06:46:11.587Z,69.65
2022-08-07T06:48:41.978Z,69.98
2022-08-07T06:51:30.934Z,70.52
2022-08-07T06:55:32.641Z,70.29
2022-08-07T06:56:51.407Z,69.95
2022-08-07T07:00:12.146Z,70.22
2022-08-07T07:02:48.223Z,70.17
2022-08-07T07:05:13.816Z,69.91
2022-08-07T07:08:06.334Z,69.89
2022-08-07T07:10:35.327Z,68.90
2022-08-07T07:13:17.020Z,68.50
2022-08-07T07:16:09.876Z,69.54
2022-08-07T07:18:47.889Z,69.32
2022-08-07T07:22:04.193Z,68.53
2022-08-07T07:24:23.056Z,68.52
2022-08-07T07:26:53.929Z,67.96
2022-08-07T07:29:39.837Z,68.29
2022-08-07T07:32:14.056Z,67.34
2022-08-07T07:34:48.599Z,66.94
2022-08-07T07:37:44.469Z,66.98
2022-08-07T07:40:10.214Z,66.86
2022-08-07T07:42:43.849Z,66.35
2022-08-07T07:45:19.157Z,65.70
2022-08-07T07:47:53.340Z,66.06
2022-08-07T07:50:33.878Z,66.54
2022-08-07T07:53:20.535Z,64.58
2022-08-07T07:55:57.919Z,64.95
2022-08-07T07:58:40.339Z,64.47
2022-08-07T08:02:02.513Z,64.12
2022-08-07T08:04:10.511Z,63.36
2022-08-07T08:06:51.008Z,63.79
2022-08-07T08:09:22.716Z,62.63
2022-08-07T08:12:03.006Z,63.12
2022-08-07T08:14:34.475Z,63.44
2022-08-07T08:17:55.708Z,63.51
2022-08-07T08:20:17.118Z,61.83
2022-08-07T08:23:08.462Z,61.12
2022-08-07T08:25:58.212Z,61.41
2022-08-07T08:28:38.720Z,61.03
2022-08-07T08:31:14.862Z,60.69
2022-08-07T08:33:49.630Z,58.34
2022-08-07T08:36:29.614Z,59.61
2022-08-07T08:39:01.949Z,59.49
2022-08-07T08:41:58.649Z,59.55
2022-08-07T08:44:37.280Z,57.00
2022-08-07T08:47:47.291Z,58.17
2022-08-07T08:50:38.782Z,58.00
2022-08-07T08:53:31.385Z,55.32
2022-08-07T08:56:12.149Z,56.25
2022-08-07T08:58:54.314Z,56.89
2022-08-07T09:01:40.185Z,56.51
2022-08-07T09:04:38.813Z,56.93
2022-08-07T09:07:34.151Z,56.90
2022-08-07T09:10:34.011Z,56.16
2022-08-07T09:13:14.812Z,54.79
2022-08-07T09:16:22.154Z,55.60
2022-08-07T09:19:51.608Z,55.70
2022-08-07T09:24:28.837Z,56.12
2022-08-07T09:25:17.395Z,55.08
2022-08-07T09:28:05.042Z,54.70
2022-08-07T09:30:55.109Z,54.75
2022-08-07T09:33:40.827Z,52.81
2022-08-07T09:36:20.170Z,52.65
2022-08-07T09:38:54.556Z,52.57
2022-08-07T09:41:58.633Z,53.88
2022-08-07T09:44:58.641Z,52.71
2022-08-07T09:47:58.326Z,51.06
2022-08-07T09:50:46.225Z,50.04
2022-08-07T09:53:15.620Z,50.03
2022-08-07T09:56:03.933Z,50.71
2022-08-07T09:58:51.121Z,49.28
2022-08-07T10:01:59.120Z,49.68
2022-08-07T10:04:47.612Z,49.47
2022-08-07T10:08:00.817Z,49.09
2022-08-07T10:10:29.968Z,47.79
2022-08-07T10:13:55.470Z,49.19
2022-08-07T10:16:34.665Z,48.71
2022-08-07T10:19:21.192Z,48.02
2022-08-07T10:22:16.003Z,48.20
2022-08-07T10:24:55.882Z,47.15
2022-08-07T10:27:51.340Z,47.12
2022-08-07T10:30:35.192Z,46.29
2022-08-07T10:33:23.736Z,46.18
2022-08-07T10:37:05.520Z,46.68
2022-08-07T10:40:30.254Z,44.77
2022-08-07T10:43:19.360Z,45.04
2022-08-07T10:46:00.667Z,43.34
2022-08-07T10:48:54.852Z,44.39
2022-08-07T10:51:39.235Z,42.61
2022-08-07T10:54:42.732Z,43.57
2022-08-07T10:57:34.020Z,42.83
2022-08-07T11:00:39.466Z,41.52
2022-08-07T11:03:51.216Z,42.69
2022-08-07T11:06:28.849Z,41.80
2022-08-07T11:10:07.174Z,42.06
2022-08-07T11:12:43.338Z,40.87
2022-08-07T11:15:17.879Z,39.96
2022-08-07T11:17:56.500Z,40.26
2022-08-07T11:20:56.080Z,41.30
2022-08-07T11:23:45.353Z,42.62
2022-08-07T11:26:21.928Z,41.80
2022-08-07T11:28:58.756Z,41.05
2022-08-07T11:31:41.754Z,41.03
2022-08-07T11:34:24.686Z,39.65
2022-08-07T11:37:11.590Z,38.66
2022-08-07T11:40:02.016Z,39.82
2022-08-07T11:42:40.843Z,38.72
2022-08-07T11:45:20.348Z,37.44
2022-08-07T11:48:02.622Z,38.16
2022-08-07T11:50:57.827Z,37.00
2022-08-07T11:53:35.350Z,38.13
2022-08-07T11:56:26.853Z,36.62
2022-08-07T12:00:12.465Z,37.39
2022-08-07T12:02:52.195Z,37.22
2022-08-07T12:05:49.178Z,38.11
2022-08-07T12:08:34.562Z,37.11
2022-08-07T12:11:21.019Z,36.50
2022-08-07T12:14:19.126Z,37.11
2022-08-07T12:16:53.171Z,34.87
2022-08-07T12:19:35.333Z,34.91
2022-08-07T12:22:38.898Z,35.58
2022-08-07T12:26:00.939Z,37.10
2022-08-07T12:28:09.624Z,36.38
2022-08-07T12:30:46.676Z,34.74
2022-08-07T12:33:28.567Z,36.36
2022-08-07T12:36:02.164Z,37.80
2022-08-07T12:38:42.774Z,36.67
2022-08-07T12:41:11.468Z,34.91
2022-08-07T12:43:58.767Z,34.71
2022-08-07T12:46:55.412Z,35.50
2022-08-07T12:49:51.044Z,36.60
2022-08-07T12:52:59.223Z,37.48
2022-08-07T12:55:41.361Z,34.34
2022-08-07T12:58:35.421Z,36.20
2022-08-07T13:01:28.048Z,35.70
2022-08-07T13:04:32.652Z,35.94
2022-08-07T13:08:12.050Z,35.98
2022-08-07T13:10:38.086Z,34.46
2022-08-07T13:13:48.630Z,34.70
2022-08-07T13:16:27.082Z,33.46
2022-08-07T13:19:21.732Z,33.72
2022-08-07T13:22:19.553Z,33.02
2022-08-07T13:25:02.484Z,32.97
2022-08-07T13:28:12.481Z,33.54
2022-08-07T13:30:48.673Z,33.12
2022-08-07T13:34:34.443Z,33.98
2022-08-07T13:36:39.744Z,33.26
2022-08-07T13:39:28.594Z,31.64
2022-08-07T13:42:14.616Z,33.20
2022-08-07T13:45:11.773Z,30.70
2022-08-07T13:48:05.879Z,31.83
2022-08-07T13:50:33.175Z,32.53
2022-08-07T13:53:05.205Z,31.36
2022-08-07T13:55:37.035Z,30.87
2022-08-07T13:58:56.144Z,31.85
2022-08-07T14:01:26.271Z,30.57
2022-08-07T14:04:06.929Z,31.51
2022-08-07T14:06:36.927Z,31.30
2022-08-07T14:09:16.998Z,29.59
2022-08-07T14:12:00.922Z,30.06
2022-08-07T14:14:42.020Z,30.12
2022-08-07T14:17:32.375Z,28.74
2022-08-07T14:20:40.153Z,29.16
2022-08-07T14:23:08.530Z,30.22
2022-08-07T14:25:47.942Z,29.52
2022-08-07T14:28:17.531Z,29.59
2022-08-07T14:30:52.123Z,29.95
2022-08-07T14:33:22.359Z,28.90
2022-08-07T14:35:55.697Z,31.17
2022-08-07T14:38:30.750Z,31.88
2022-08-07T14:41:04.944Z,31.24
2022-08-07T14:43:58.617Z,30.27
2022-08-07T14:54:58.646Z,29.83
2022-08-07T14:57:54.677Z,30.85
2022-08-07T15:00:29.662Z,30.95
2022-08-07T15:02:59.345Z,30.96
2022-08-07T15:05:30.349Z,29.32
2022-08-07T15:07:59.925Z,28.23
2022-08-07T15:10:29.862Z,28.96
2022-08-07T15:13:01.673Z,28.48
2022-08-07T15:15:41.952Z,29.02
2022-08-07T15:18:14.479Z,29.84
2022-08-07T15:21:03.946Z,29.58
2022-08-07T15:26:36.242Z,31.08
2022-08-07T15:30:04.546Z,30.65
2022-08-07T15:31:57.749Z,30.10
2022-08-07T15:34:50.462Z,29.61
2022-08-07T15:37:28.705Z,29.66
2022-08-07T15:40:35.027Z,31.11
2022-08-07T15:43:10.834Z,31.20
2022-08-07T15:46:03.528Z,30.00
2022-08-07T15:49:04.048Z,31.12
2022-08-07T15:54:16.669Z,30.79
2022-08-07T15:56:45.986Z,29.60
2022-08-07T15:59:17.354Z,28.61
2022-08-07T16:02:02.373Z,29.67
2022-08-07T16:04:32.920Z,30.16
2022-08-07T16:07:04.756Z,28.37
2022-08-07T16:09:52.188Z,30.23
2022-08-07T16:13:17.738Z,29.80
2022-08-07T16:16:47.987Z,30.51
2022-08-07T16:19:42.653Z,30.87
2022-08-07T16:22:33.665Z,29.88
2022-08-07T16:25:52.612Z,31.04
2022-08-07T16:29:18.384Z,30.00
2022-08-07T16:31:50.901Z,30.75
2022-08-07T16:34:48.305Z,31.34
2022-08-07T16:38:05.230Z,31.36
2022-08-07T16:40:31.992Z,31.48
2022-08-07T16:44:05.552Z,31.29
2022-08-07T16:47:05.921Z,30.91
2022-08-07T16:50:20.777Z,31.32
2022-08-07T16:52:55.781Z,31.00
2022-08-07T16:55:29.176Z,30.49
2022-08-07T16:59:10.163Z,31.21
2022-08-07T17:01:41.147Z,29.99
2022-08-07T17:04:24.522Z,30.70
2022-08-07T17:07:03.447Z,30.59
2022-08-07T17:10:06.975Z,31.54
2022-08-07T17:12:48.125Z,31.26
2022-08-07T17:15:44.377Z,32.33
2022-08-07T17:18:38.413Z,31.42
2022-08-07T17:21:18.723Z,31.75
2022-08-07T17:23:54.805Z,32.20
2022-08-07T17:26:36.942Z,31.92
2022-08-07T17:30:15.931Z,31.90
2022-08-07T17:34:09.491Z,31.92
2022-08-07T17:36:13.653Z,31.70
2022-08-07T17:38:55.352Z,30.76
2022-08-07T17:42:02.664Z,31.10
2022-08-07T17:44:33.582Z,31.05
2022-08-07T17:47:38.554Z,30.94
2022-08-07T17:50:30.827Z,31.45
2022-08-07T17:53:08.073Z,29.95
2022-08-07T17:56:15.428Z,30.81
2022-08-07T17:58:56.843Z,30.24
2022-08-07T18:01:48.361Z,32.05
2022-08-07T18:04:34.857Z,31.90
2022-08-07T18:07:20.607Z,31.61
2022-08-07T18:10:06.110Z,31.29
2022-08-07T18:13:11.701Z,32.21
2022-08-07T18:16:12.470Z,32.25
2022-08-07T18:21:03.530Z,32.96
2022-08-07T18:22:02.725Z,32.52
2022-08-07T18:24:36.520Z,33.30
2022-08-07T18:27:12.493Z,33.62
2022-08-07T18:30:31.098Z,33.19
2022-08-07T18:33:15.591Z,33.27
2022-08-07T18:36:14.061Z,33.86
2022-08-07T18:40:06.482Z,34.09
2022-08-07T18:42:27.901Z,34.52
2022-08-07T18:45:40.257Z,34.43
2022-08-07T18:48:02.568Z,35.12
2022-08-07T18:50:39.456Z,34.98
2022-08-07T18:53:21.110Z,35.44
2022-08-07T18:56:07.641Z,35.24
2022-08-07T18:59:47.704Z,35.54
2022-08-07T19:02:42.335Z,36.09
2022-08-07T19:05:22.722Z,36.32
2022-08-07T19:07:57.522Z,36.61
2022-08-07T19:10:31.946Z,36.87
2022-08-07T19:13:23.079Z,37.35
2022-08-07T19:17:00.667Z,37.32
2022-08-07T19:19:42.987Z,37.45
2022-08-07T19:22:31.317Z,37.72
2022-08-07T19:25:06.432Z,37.98
2022-08-07T19:28:58.354Z,38.03
2022-08-07T19:31:01.927Z,38.24
2022-08-07T19:33:16.013Z,38.48
2022-08-07T19:35:53.685Z,38.43
2022-08-07T19:38:23.483Z,38.96
2022-08-07T19:40:58.539Z,38.94
2022-08-07T19:43:48.638Z,39.03
2022-08-07T19:46:22.312Z,39.37
2022-08-07T19:49:02.925Z,39.42
2022-08-07T19:51:51.968Z,39.37
2022-08-07T19:54:32.983Z,39.72
2022-08-07T19:58:02.755Z,39.87
2022-08-07T19:59:59.413Z,40.20
2022-08-07T20:02:39.891Z,40.47
2022-08-07T20:06:00.365Z,40.37
2022-08-07T20:08:30.127Z,40.27
2022-08-07T20:11:10.291Z,41.18
2022-08-07T20:13:50.168Z,40.87
2022-08-07T20:16:32.204Z,41.05
2022-08-07T20:19:10.555Z,41.02
2022-08-07T20:21:46.643Z,41.48
2022-08-07T20:24:35.894Z,41.49
2022-08-07T20:27:11.839Z,42.10
2022-08-07T20:29:56.734Z,43.05
2022-08-07T20:32:40.217Z,42.94
2022-08-07T20:35:16.023Z,42.81
2022-08-07T20:37:57.758Z,42.93
2022-08-07T20:40:32.741Z,43.66
2022-08-07T20:43:03.705Z,43.32
2022-08-07T20:46:26.874Z,43.69
2022-08-07T20:48:30.770Z,43.69
2022-08-07T20:51:03.174Z,44.20
2022-08-07T20:54:04.369Z,44.13
2022-08-07T20:56:34.549Z,44.49
2022-08-07T20:59:06.004Z,44.09
2022-08-07T21:01:45.337Z,44.23
2022-08-07T21:04:22.215Z,45.00
2022-08-07T21:06:53.632Z,45.71
2022-08-07T21:09:24.555Z,44.55
2022-08-07T21:11:57.470Z,46.14
2022-08-07T21:14:34.839Z,45.02
2022-08-07T21:18:03.404Z,46.42
2022-08-07T21:20:00.796Z,45.97
2022-08-07T21:22:53.517Z,45.66
2022-08-07T21:25:38.643Z,45.71
2022-08-07T21:28:16.881Z,47.13
2022-08-07T21:30:50.228Z,46.54
2022-08-07T21:33:22.825Z,47.18
2022-08-07T21:36:11.925Z,46.66
2022-08-07T21:39:46.259Z,47.26
2022-08-07T21:42:10.678Z,47.04
2022-08-07T21:44:55.302Z,47.79
2022-08-07T21:47:46.651Z,47.35
2022-08-07T21:50:25.153Z,47.73
2022-08-07T21:53:07.759Z,47.58
2022-08-07T21:55:47.451Z,48.10
2022-08-07T21:58:40.130Z,48.51
2022-08-07T22:02:11.361Z,47.82
2022-08-07T22:04:35.212Z,48.99
2022-08-07T22:07:20.382Z,49.32
2022-08-07T22:09:55.476Z,49.27
2022-08-07T22:12:32.363Z,48.96
2022-08-07T22:16:38.995Z,49.32
2022-08-07T22:18:07.024Z,49.81
2022-08-07T22:21:01.414Z,49.30
2022-08-07T22:23:52.529Z,49.62
2022-08-07T22:26:52.958Z,50.09
2022-08-07T22:29:47.330Z,50.01
2022-08-07T22:32:52.873Z,50.11
2022-08-07T22:35:23.316Z,50.79
2022-08-07T22:38:07.928Z,50.61
2022-08-07T22:40:52.498Z,50.96
2022-08-07T22:43:44.258Z,50.75
2022-08-07T22:47:02.483Z,51.19
2022-08-07T22:49:51.619Z,51.25
2022-08-07T22:52:37.476Z,49.27
2022-08-07T22:55:30.201Z,50.87
2022-08-07T22:57:59.584Z,52.39
2022-08-07T23:00:40.625Z,52.17
2022-08-07T23:03:58.548Z,52.81
2022-08-07T23:06:52.078Z,51.11
2022-08-07T23:10:06.206Z,51.82
2022-08-07T23:13:06.305Z,51.95
2022-08-07T23:16:07.148Z,52.20
2022-08-07T23:19:16.251Z,52.18
2022-08-07T23:22:04.130Z,52.54
2022-08-07T23:24:45.462Z,53.63
2022-08-07T23:28:21.310Z,52.86
2022-08-07T23:31:06.832Z,53.25
2022-08-07T23:34:36.660Z,53.84
2022-08-07T23:37:19.986Z,53.61
2022-08-07T23:40:11.458Z,53.50
2022-08-07T23:42:53.430Z,54.33
2022-08-07T23:46:01.776Z,54.77
2022-08-07T23:48:40.710Z,54.24
2022-08-07T23:53:01.972Z,54.76
2022-08-07T23:54:20.039Z,54.73
2022-08-07T23:57:28.005Z,55.00
